»·PEaware :: N175EU KAPV-KBFL

N175EU :: KAPV-KBFL

FLIGHT INFORMATION

Flight Status: Arrived
Operator: Privately registered:
United States
More flights under this callsign
Pilot: Anonymous 16342 (16342)
Aircraft: BEECH AIRCRAFT SUPER KING AIR COMMUTER
(BE20)
More flights by this aircraft type
Origin: KAPV Apple Valley
United States
Destination: KBFL Meadows
United States
More flights between these airports :: More routes between these airports
Route: APLES V386 PMD V197 EHF
File this flight plan on PilotEdge
Remarks:
Altitude:
(Current/Filed)
10,000ft
Speed:
(Current/Filed)
220kts
Departed: 14-Aug-18 08:17 AM
Arrived: 14-Aug-18 08:57 AM
Distance/Time
Traveled:
105nm/0:40
Distance/Time
To Go:
Arrived

Flight Plot

Page will automatically refresh every two minutes.

Flight plan parsing failed; only flown route is shown


Map Options




Map Legend


Flown Route
Filed Route
Departure Airport
Arrival Airport
Navaid (VOR, NDB)
Fix

Horizontal Profiles

Position Reports

Time Latitude Longitude Heading Altitude Ground
Speed
14-Aug-18 08:09 34.571237 -117.190346 358 3066ft 0kts
14-Aug-18 08:10 34.571336 -117.189559 13 3066ft 12kts
14-Aug-18 08:11 34.575899 -117.187991 9 3066ft 13kts
14-Aug-18 08:12 34.579623 -117.186638 15 3066ft 14kts
14-Aug-18 08:13 34.583679 -117.185250 15 3066ft 15kts
14-Aug-18 08:14 34.587360 -117.183954 14 3066ft 10kts
14-Aug-18 08:15 34.587689 -117.183466 104 3066ft 0kts
14-Aug-18 08:16 34.587689 -117.183464 104 3066ft 0kts
14-Aug-18 08:17 34.586213 -117.182938 197 3066ft 0kts
14-Aug-18 08:18 34.558292 -117.191412 190 3378ft 181kts
14-Aug-18 08:19 34.508447 -117.213397 225 5274ft 189kts
14-Aug-18 08:20 34.508293 -117.273699 303 7729ft 195kts
14-Aug-18 08:21 34.541620 -117.324769 307 9937ft 212kts
14-Aug-18 08:22 34.569098 -117.390397 280 10020ft 213kts
14-Aug-18 08:23 34.577363 -117.461404 275 10016ft 208kts
14-Aug-18 08:24 34.583878 -117.531568 275 10008ft 206kts
14-Aug-18 08:25 34.590228 -117.601221 275 9993ft 204kts
14-Aug-18 08:26 34.596579 -117.671937 275 10013ft 224kts
14-Aug-18 08:27 34.603932 -117.753747 275 10002ft 251kts
14-Aug-18 08:28 34.610224 -117.825303 274 9981ft 254kts
14-Aug-18 08:29 34.619011 -117.924552 275 9993ft 253kts
14-Aug-18 08:30 34.626677 -118.010489 275 10002ft 255kts
14-Aug-18 08:31 34.645632 -118.078235 305 9986ft 256kts
14-Aug-18 08:32 34.692625 -118.144081 313 9976ft 256kts
14-Aug-18 08:33 34.749257 -118.217328 313 9987ft 253kts
14-Aug-18 08:34 34.790054 -118.270407 313 9974ft 255kts
14-Aug-18 08:35 34.838825 -118.334195 313 10000ft 255kts
14-Aug-18 08:36 34.887435 -118.397993 313 10028ft 255kts
14-Aug-18 08:37 34.936153 -118.461602 313 10061ft 254kts
14-Aug-18 08:38 34.984243 -118.525001 313 10077ft 253kts
14-Aug-18 08:39 35.033197 -118.587497 316 10129ft 253kts
14-Aug-18 08:40 35.084793 -118.645276 317 10151ft 251kts
14-Aug-18 08:41 35.136659 -118.703312 317 10139ft 252kts
14-Aug-18 08:42 35.180230 -118.751031 316 10111ft 228kts
14-Aug-18 08:43 35.228185 -118.809068 315 9187ft 255kts
14-Aug-18 08:44 35.279388 -118.871209 316 8045ft 265kts
14-Aug-18 08:45 35.327075 -118.928112 316 6674ft 245kts
14-Aug-18 08:46 35.373438 -118.983199 315 4856ft 226kts
14-Aug-18 08:47 35.400958 -119.041902 249 4000ft 196kts
14-Aug-18 08:48 35.350082 -119.060278 174 4001ft 210kts
14-Aug-18 08:49 35.292153 -119.052087 173 4003ft 204kts
14-Aug-18 08:50 35.235391 -119.043780 173 4015ft 203kts
14-Aug-18 08:51 35.205447 -118.998472 69 3596ft 209kts
14-Aug-18 08:52 35.253109 -118.959197 23 3046ft 211kts
14-Aug-18 08:53 35.306683 -118.938451 8 3017ft 196kts
14-Aug-18 08:54 35.351037 -118.951025 325 2641ft 155kts
14-Aug-18 08:55 35.382104 -118.989398 306 1904ft 162kts
14-Aug-18 08:56 35.409494 -119.027154 315 1076ft 110kts
14-Aug-18 08:57 35.429303 -119.050731 316 670ft 99kts
14-Aug-18 08:58 35.441034 -119.064816 317 511ft 10kts
14-Aug-18 08:59 35.443368 -119.066416 45 511ft 0kts
14-Aug-18 09:00 35.442134 -119.063987 135 511ft 17kts
14-Aug-18 09:01 35.438565 -119.059698 137 511ft 13kts
14-Aug-18 09:02 35.435401 -119.055860 137 511ft 13kts
14-Aug-18 09:03 35.432225 -119.051962 138 511ft 17kts
14-Aug-18 09:04 35.430814 -119.048837 126 511ft 0kts
14-Aug-18 09:05 35.430812 -119.048835 126 511ft 0kts
14-Aug-18 09:06 35.430812 -119.048835 126 511ft 0kts
14-Aug-18 09:07 35.430812 -119.048835 126 511ft 0kts
14-Aug-18 09:08 35.430812 -119.048835 126 511ft 0kts
14-Aug-18 09:09 35.430812 -119.048835 126 511ft 0kts
14-Aug-18 09:10 35.430812 -119.048835 126 511ft 0kts
14-Aug-18 09:11 35.430812 -119.048835 126 511ft 0kts
14-Aug-18 09:12 35.430812 -119.048835 126 511ft 0kts

Navigation Log

Ident Type
Flight plan parsing failed, navigation log unavailable